sensor_id;sensor_type;location;lat;lon;timestamp;P1;durP1;ratioP1;P2;durP2;ratioP2
6561;SDS011;3314;50.890;4.722;2024-01-11T00:01:17;47.3;;;16.9;;
6561;SDS011;3314;50.890;4.722;2024-01-11T00:03:21;40.0;;;16.1;;
6561;SDS011;3314;50.890;4.722;2024-01-11T00:05:14;41.1;;;16.8;;
6561;SDS011;3314;50.890;4.722;2024-01-11T00:07:14;36.5;;;15.7;;
6561;SDS011;3314;50.890;4.722;2024-01-11T00:09:14;38.9;;;14.7;;
6561;SDS011;3314;50.890;4.722;2024-01-11T00:11:16;35.5;;;15.0;;
6561;SDS011;3314;50.890;4.722;2024-01-11T00:13:18;40.7;;;16.0;;
6561;SDS011;3314;50.890;4.722;2024-01-11T00:15:12;40.2;;;15.2;;
6561;SDS011;3314;50.890;4.722;2024-01-11T00:17:13;41.2;;;16.0;;
6561;SDS011;3314;50.890;4.722;2024-01-11T00:19:13;38.4;;;15.8;;
6561;SDS011;3314;50.890;4.722;2024-01-11T00:21:14;38.2;;;15.6;;
6561;SDS011;3314;50.890;4.722;2024-01-11T00:23:13;37.3;;;14.8;;
6561;SDS011;3314;50.890;4.722;2024-01-11T00:25:13;44.9;;;16.9;;
6561;SDS011;3314;50.890;4.722;2024-01-11T00:27:13;40.8;;;15.0;;
6561;SDS011;3314;50.890;4.722;2024-01-11T00:29:03;42.4;;;14.9;;
6561;SDS011;3314;50.890;4.722;2024-01-11T00:31:02;41.2;;;16.7;;
6561;SDS011;3314;50.890;4.722;2024-01-11T00:33:03;38.8;;;14.4;;
6561;SDS011;3314;50.890;4.722;2024-01-11T00:35:05;40.0;;;16.1;;
6561;SDS011;3314;50.890;4.722;2024-01-11T00:37:06;42.6;;;16.0;;
6561;SDS011;3314;50.890;4.722;2024-01-11T00:39:06;31.2;;;14.7;;
6561;SDS011;3314;50.890;4.722;2024-01-11T00:41:05;38.1;;;15.6;;
6561;SDS011;3314;50.890;4.722;2024-01-11T00:43:05;43.2;;;15.5;;
6561;SDS011;3314;50.890;4.722;2024-01-11T00:45:09;34.8;;;15.2;;
6561;SDS011;3314;50.890;4.722;2024-01-11T00:47:00;41.7;;;16.5;;
6561;SDS011;3314;50.890;4.722;2024-01-11T00:49:02;37.0;;;15.8;;
6561;SDS011;3314;50.890;4.722;2024-01-11T00:51:01;35.8;;;15.2;;
6561;SDS011;3314;50.890;4.722;2024-01-11T00:53:08;40.1;;;16.2;;
6561;SDS011;3314;50.890;4.722;2024-01-11T00:55:01;34.9;;;15.0;;
6561;SDS011;3314;50.890;4.722;2024-01-11T00:57:01;39.8;;;15.2;;
6561;SDS011;3314;50.890;4.722;2024-01-11T00:59:05;39.3;;;16.2;;
6561;SDS011;3314;50.890;4.722;2024-01-11T01:00:53;36.1;;;15.0;;
6561;SDS011;3314;50.890;4.722;2024-01-11T01:02:53;39.9;;;15.5;;
6561;SDS011;3314;50.890;4.722;2024-01-11T01:04:53;35.6;;;14.3;;
6561;SDS011;3314;50.890;4.722;2024-01-11T01:06:52;38.3;;;15.2;;
6561;SDS011;3314;50.890;4.722;2024-01-11T01:08:53;38.6;;;14.4;;
6561;SDS011;3314;50.890;4.722;2024-01-11T01:10:53;46.5;;;16.2;;
6561;SDS011;3314;50.890;4.722;2024-01-11T01:12:52;36.5;;;14.3;;
6561;SDS011;3314;50.890;4.722;2024-01-11T01:14:52;35.8;;;15.1;;
6561;SDS011;3314;50.890;4.722;2024-01-11T01:16:53;39.8;;;15.9;;
6561;SDS011;3314;50.890;4.722;2024-01-11T01:18:57;37.2;;;14.3;;
6561;SDS011;3314;50.890;4.722;2024-01-11T01:20:58;36.0;;;14.1;;
6561;SDS011;3314;50.890;4.722;2024-01-11T01:22:49;42.3;;;15.6;;
6561;SDS011;3314;50.890;4.722;2024-01-11T01:24:48;38.1;;;15.7;;
6561;SDS011;3314;50.890;4.722;2024-01-11T01:26:48;36.5;;;14.5;;
6561;SDS011;3314;50.890;4.722;2024-01-11T01:28:48;37.8;;;15.9;;
6561;SDS011;3314;50.890;4.722;2024-01-11T01:30:47;41.0;;;15.0;;
6561;SDS011;3314;50.890;4.722;2024-01-11T01:32:48;37.8;;;15.0;;
6561;SDS011;3314;50.890;4.722;2024-01-11T01:34:47;45.1;;;16.4;;
6561;SDS011;3314;50.890;4.722;2024-01-11T01:36:47;38.8;;;14.8;;
6561;SDS011;3314;50.890;4.722;2024-01-11T01:38:47;38.1;;;14.6;;
6561;SDS011;3314;50.890;4.722;2024-01-11T01:40:51;37.9;;;15.4;;
6561;SDS011;3314;50.890;4.722;2024-01-11T01:42:42;33.4;;;14.0;;
6561;SDS011;3314;50.890;4.722;2024-01-11T01:44:45;37.0;;;15.0;;
6561;SDS011;3314;50.890;4.722;2024-01-11T01:46:47;35.7;;;13.5;;
6561;SDS011;3314;50.890;4.722;2024-01-11T01:48:47;40.2;;;14.5;;
6561;SDS011;3314;50.890;4.722;2024-01-11T01:50:50;35.7;;;14.3;;
6561;SDS011;3314;50.890;4.722;2024-01-11T01:52:39;38.0;;;14.9;;
6561;SDS011;3314;50.890;4.722;2024-01-11T01:54:42;33.7;;;14.2;;
6561;SDS011;3314;50.890;4.722;2024-01-11T01:56:42;32.1;;;14.4;;
6561;SDS011;3314;50.890;4.722;2024-01-11T01:58:47;37.7;;;14.1;;
6561;SDS011;3314;50.890;4.722;2024-01-11T02:00:42;30.6;;;13.4;;
6561;SDS011;3314;50.890;4.722;2024-01-11T02:02:45;40.6;;;14.0;;
6561;SDS011;3314;50.890;4.722;2024-01-11T02:04:37;35.7;;;13.9;;
6561;SDS011;3314;50.890;4.722;2024-01-11T02:06:42;40.5;;;14.8;;
6561;SDS011;3314;50.890;4.722;2024-01-11T02:08:34;35.0;;;14.3;;
6561;SDS011;3314;50.890;4.722;2024-01-11T02:10:35;41.7;;;14.3;;
6561;SDS011;3314;50.890;4.722;2024-01-11T02:12:35;35.7;;;13.5;;
6561;SDS011;3314;50.890;4.722;2024-01-11T02:14:35;36.7;;;13.3;;
6561;SDS011;3314;50.890;4.722;2024-01-11T02:16:36;38.0;;;13.3;;
6561;SDS011;3314;50.890;4.722;2024-01-11T02:18:36;37.9;;;12.8;;
6561;SDS011;3314;50.890;4.722;2024-01-11T02:20:36;33.8;;;14.9;;
6561;SDS011;3314;50.890;4.722;2024-01-11T02:22:37;39.9;;;13.3;;
6561;SDS011;3314;50.890;4.722;2024-01-11T02:24:38;33.4;;;12.7;;
6561;SDS011;3314;50.890;4.722;2024-01-11T02:26:37;41.7;;;15.0;;
6561;SDS011;3314;50.890;4.722;2024-01-11T02:28:32;34.3;;;14.1;;
6561;SDS011;3314;50.890;4.722;2024-01-11T02:30:35;37.3;;;14.1;;
6561;SDS011;3314;50.890;4.722;2024-01-11T02:32:35;37.5;;;13.4;;
6561;SDS011;3314;50.890;4.722;2024-01-11T02:34:34;35.7;;;13.7;;
6561;SDS011;3314;50.890;4.722;2024-01-11T02:36:34;35.4;;;13.1;;
6561;SDS011;3314;50.890;4.722;2024-01-11T02:38:34;35.9;;;13.0;;
6561;SDS011;3314;50.890;4.722;2024-01-11T02:40:24;37.8;;;14.2;;
6561;SDS011;3314;50.890;4.722;2024-01-11T02:42:27;38.8;;;14.2;;
6561;SDS011;3314;50.890;4.722;2024-01-11T02:44:28;32.0;;;12.7;;
6561;SDS011;3314;50.890;4.722;2024-01-11T02:46:28;31.7;;;14.6;;
6561;SDS011;3314;50.890;4.722;2024-01-11T02:48:30;36.8;;;12.4;;
6561;SDS011;3314;50.890;4.722;2024-01-11T02:50:30;33.6;;;12.5;;
6561;SDS011;3314;50.890;4.722;2024-01-11T02:52:30;41.1;;;14.0;;
6561;SDS011;3314;50.890;4.722;2024-01-11T02:54:29;31.3;;;12.4;;
6561;SDS011;3314;50.890;4.722;2024-01-11T02:56:20;33.2;;;13.6;;
6561;SDS011;3314;50.890;4.722;2024-01-11T02:58:20;35.1;;;13.3;;
6561;SDS011;3314;50.890;4.722;2024-01-11T03:00:24;34.0;;;13.4;;
6561;SDS011;3314;50.890;4.722;2024-01-11T03:02:28;34.3;;;13.6;;
6561;SDS011;3314;50.890;4.722;2024-01-11T03:04:17;33.4;;;13.5;;
6561;SDS011;3314;50.890;4.722;2024-01-11T03:06:22;44.8;;;14.0;;
6561;SDS011;3314;50.890;4.722;2024-01-11T03:08:21;33.0;;;11.5;;
6561;SDS011;3314;50.890;4.722;2024-01-11T03:10:21;30.3;;;12.4;;
6561;SDS011;3314;50.890;4.722;2024-01-11T03:12:21;31.5;;;13.2;;
6561;SDS011;3314;50.890;4.722;2024-01-11T03:14:21;38.0;;;14.0;;
6561;SDS011;3314;50.890;4.722;2024-01-11T03:16:21;32.7;;;13.0;;
6561;SDS011;3314;50.890;4.722;2024-01-11T03:18:20;37.4;;;13.5;;
6561;SDS011;3314;50.890;4.722;2024-01-11T03:20:24;34.2;;;12.8;;
6561;SDS011;3314;50.890;4.722;2024-01-11T03:22:12;33.6;;;13.1;;
6561;SDS011;3314;50.890;4.722;2024-01-11T03:24:12;35.2;;;12.3;;
6561;SDS011;3314;50.890;4.722;2024-01-11T03:26:12;34.2;;;13.4;;
6561;SDS011;3314;50.890;4.722;2024-01-11T03:28:12;40.9;;;13.5;;
6561;SDS011;3314;50.890;4.722;2024-01-11T03:30:12;32.2;;;13.0;;
6561;SDS011;3314;50.890;4.722;2024-01-11T03:32:14;33.6;;;13.6;;
6561;SDS011;3314;50.890;4.722;2024-01-11T03:34:14;32.8;;;13.0;;
6561;SDS011;3314;50.890;4.722;2024-01-11T03:36:13;35.3;;;12.9;;
6561;SDS011;3314;50.890;4.722;2024-01-11T03:38:14;31.6;;;12.4;;
6561;SDS011;3314;50.890;4.722;2024-01-11T03:40:15;38.0;;;13.5;;
6561;SDS011;3314;50.890;4.722;2024-01-11T03:42:14;36.9;;;13.7;;
6561;SDS011;3314;50.890;4.722;2024-01-11T03:44:17;32.0;;;11.9;;
6561;SDS011;3314;50.890;4.722;2024-01-11T03:46:06;28.7;;;12.9;;
6561;SDS011;3314;50.890;4.722;2024-01-11T03:48:09;32.0;;;12.6;;
6561;SDS011;3314;50.890;4.722;2024-01-11T03:50:11;30.4;;;12.4;;
6561;SDS011;3314;50.890;4.722;2024-01-11T03:52:14;35.0;;;12.3;;
6561;SDS011;3314;50.890;4.722;2024-01-11T03:54:04;34.6;;;12.5;;
6561;SDS011;3314;50.890;4.722;2024-01-11T03:56:04;34.0;;;12.7;;
6561;SDS011;3314;50.890;4.722;2024-01-11T03:58:04;35.6;;;14.1;;
6561;SDS011;3314;50.890;4.722;2024-01-11T04:00:10;31.0;;;13.9;;
6561;SDS011;3314;50.890;4.722;2024-01-11T04:02:01;35.4;;;12.4;;
6561;SDS011;3314;50.890;4.722;2024-01-11T04:04:01;38.4;;;13.3;;
6561;SDS011;3314;50.890;4.722;2024-01-11T04:06:01;32.4;;;13.3;;
6561;SDS011;3314;50.890;4.722;2024-01-11T04:08:03;36.2;;;12.9;;
6561;SDS011;3314;50.890;4.722;2024-01-11T04:10:03;34.3;;;13.6;;
6561;SDS011;3314;50.890;4.722;2024-01-11T04:12:04;30.6;;;12.2;;
6561;SDS011;3314;50.890;4.722;2024-01-11T04:14:04;31.7;;;12.6;;
6561;SDS011;3314;50.890;4.722;2024-01-11T04:16:04;29.0;;;12.1;;
6561;SDS011;3314;50.890;4.722;2024-01-11T04:18:06;34.2;;;13.9;;
6561;SDS011;3314;50.890;4.722;2024-01-11T04:19:54;33.4;;;12.4;;
6561;SDS011;3314;50.890;4.722;2024-01-11T04:21:53;38.3;;;13.7;;
6561;SDS011;3314;50.890;4.722;2024-01-11T04:23:53;32.7;;;12.0;;
6561;SDS011;3314;50.890;4.722;2024-01-11T04:25:53;38.4;;;12.7;;
6561;SDS011;3314;50.890;4.722;2024-01-11T04:27:53;33.9;;;12.2;;
6561;SDS011;3314;50.890;4.722;2024-01-11T04:29:52;34.6;;;12.8;;
6561;SDS011;3314;50.890;4.722;2024-01-11T04:31:53;32.1;;;13.1;;
6561;SDS011;3314;50.890;4.722;2024-01-11T04:33:53;31.4;;;13.0;;
6561;SDS011;3314;50.890;4.722;2024-01-11T04:35:53;35.4;;;13.3;;
6561;SDS011;3314;50.890;4.722;2024-01-11T04:37:55;35.7;;;12.6;;
6561;SDS011;3314;50.890;4.722;2024-01-11T04:40:00;31.9;;;13.5;;
6561;SDS011;3314;50.890;4.722;2024-01-11T04:41:48;36.9;;;13.0;;
6561;SDS011;3314;50.890;4.722;2024-01-11T04:43:48;30.5;;;12.7;;
6561;SDS011;3314;50.890;4.722;2024-01-11T04:45:52;36.4;;;13.3;;
6561;SDS011;3314;50.890;4.722;2024-01-11T04:47:52;37.8;;;13.0;;
6561;SDS011;3314;50.890;4.722;2024-01-11T04:49:53;35.8;;;12.7;;
6561;SDS011;3314;50.890;4.722;2024-01-11T04:51:57;31.7;;;12.5;;
6561;SDS011;3314;50.890;4.722;2024-01-11T04:53:45;39.0;;;13.5;;
6561;SDS011;3314;50.890;4.722;2024-01-11T04:55:46;34.6;;;12.7;;
6561;SDS011;3314;50.890;4.722;2024-01-11T04:57:49;32.6;;;12.3;;
6561;SDS011;3314;50.890;4.722;2024-01-11T04:59:51;37.0;;;14.3;;
6561;SDS011;3314;50.890;4.722;2024-01-11T05:01:45;35.1;;;12.7;;
6561;SDS011;3314;50.890;4.722;2024-01-11T05:03:48;28.5;;;12.2;;
6561;SDS011;3314;50.890;4.722;2024-01-11T05:05:51;37.4;;;13.6;;
6561;SDS011;3314;50.890;4.722;2024-01-11T05:07:43;35.4;;;13.4;;
6561;SDS011;3314;50.890;4.722;2024-01-11T05:09:45;35.4;;;13.0;;
6561;SDS011;3314;50.890;4.722;2024-01-11T05:11:46;33.4;;;14.4;;
6561;SDS011;3314;50.890;4.722;2024-01-11T05:13:48;31.5;;;13.3;;
6561;SDS011;3314;50.890;4.722;2024-01-11T05:15:38;39.2;;;14.0;;
6561;SDS011;3314;50.890;4.722;2024-01-11T05:17:43;34.5;;;13.7;;
6561;SDS011;3314;50.890;4.722;2024-01-11T05:19:44;37.3;;;12.6;;
6561;SDS011;3314;50.890;4.722;2024-01-11T05:21:48;32.6;;;12.9;;
6561;SDS011;3314;50.890;4.722;2024-01-11T05:23:36;28.9;;;12.1;;
6561;SDS011;3314;50.890;4.722;2024-01-11T05:25:37;37.7;;;14.1;;
6561;SDS011;3314;50.890;4.722;2024-01-11T05:27:38;32.1;;;12.8;;
6561;SDS011;3314;50.890;4.722;2024-01-11T05:29:43;32.7;;;11.6;;
6561;SDS011;3314;50.890;4.722;2024-01-11T05:31:32;39.4;;;13.4;;
6561;SDS011;3314;50.890;4.722;2024-01-11T05:33:32;33.9;;;13.4;;
6561;SDS011;3314;50.890;4.722;2024-01-11T05:35:31;38.1;;;13.5;;
6561;SDS011;3314;50.890;4.722;2024-01-11T05:37:31;34.3;;;12.9;;
6561;SDS011;3314;50.890;4.722;2024-01-11T05:39:31;36.0;;;12.5;;
6561;SDS011;3314;50.890;4.722;2024-01-11T05:41:31;38.1;;;12.6;;
6561;SDS011;3314;50.890;4.722;2024-01-11T05:43:30;37.1;;;13.5;;
6561;SDS011;3314;50.890;4.722;2024-01-11T05:45:31;29.5;;;12.8;;
6561;SDS011;3314;50.890;4.722;2024-01-11T05:47:35;37.1;;;12.8;;
6561;SDS011;3314;50.890;4.722;2024-01-11T05:49:37;35.6;;;13.2;;
6561;SDS011;3314;50.890;4.722;2024-01-11T05:51:25;36.2;;;13.8;;
6561;SDS011;3314;50.890;4.722;2024-01-11T05:53:27;30.0;;;11.5;;
6561;SDS011;3314;50.890;4.722;2024-01-11T05:55:32;36.4;;;13.3;;
6561;SDS011;3314;50.890;4.722;2024-01-11T05:57:32;36.1;;;12.5;;
6561;SDS011;3314;50.890;4.722;2024-01-11T05:59:33;36.8;;;13.7;;
6561;SDS011;3314;50.890;4.722;2024-01-11T06:01:26;31.8;;;11.9;;
6561;SDS011;3314;50.890;4.722;2024-01-11T06:03:34;31.8;;;12.6;;
6561;SDS011;3314;50.890;4.722;2024-01-11T06:05:22;32.2;;;12.1;;
6561;SDS011;3314;50.890;4.722;2024-01-11T06:07:25;34.7;;;13.2;;
6561;SDS011;3314;50.890;4.722;2024-01-11T06:09:25;38.4;;;13.5;;
6561;SDS011;3314;50.890;4.722;2024-01-11T06:11:24;32.3;;;12.5;;
6561;SDS011;3314;50.890;4.722;2024-01-11T06:13:24;34.5;;;13.5;;
6561;SDS011;3314;50.890;4.722;2024-01-11T06:15:24;35.8;;;12.5;;
6561;SDS011;3314;50.890;4.722;2024-01-11T06:17:24;32.3;;;12.8;;
6561;SDS011;3314;50.890;4.722;2024-01-11T06:19:23;30.2;;;12.3;;
6561;SDS011;3314;50.890;4.722;2024-01-11T06:21:26;40.1;;;12.5;;
6561;SDS011;3314;50.890;4.722;2024-01-11T06:23:26;29.9;;;11.8;;
6561;SDS011;3314;50.890;4.722;2024-01-11T06:25:16;35.2;;;14.0;;
6561;SDS011;3314;50.890;4.722;2024-01-11T06:27:18;34.0;;;13.3;;
6561;SDS011;3314;50.890;4.722;2024-01-11T06:29:18;34.8;;;13.1;;
6561;SDS011;3314;50.890;4.722;2024-01-11T06:31:18;40.3;;;13.8;;
6561;SDS011;3314;50.890;4.722;2024-01-11T06:33:18;37.0;;;13.7;;
6561;SDS011;3314;50.890;4.722;2024-01-11T06:35:21;36.9;;;12.8;;
6561;SDS011;3314;50.890;4.722;2024-01-11T06:37:23;30.7;;;13.1;;
6561;SDS011;3314;50.890;4.722;2024-01-11T06:39:13;44.5;;;14.0;;
6561;SDS011;3314;50.890;4.722;2024-01-11T06:41:14;31.5;;;12.8;;
6561;SDS011;3314;50.890;4.722;2024-01-11T06:43:15;29.2;;;13.0;;
6561;SDS011;3314;50.890;4.722;2024-01-11T06:45:20;33.6;;;12.6;;
6561;SDS011;3314;50.890;4.722;2024-01-11T06:47:11;35.8;;;13.4;;
6561;SDS011;3314;50.890;4.722;2024-01-11T06:49:13;31.2;;;12.6;;
6561;SDS011;3314;50.890;4.722;2024-01-11T06:51:14;34.1;;;12.6;;
6561;SDS011;3314;50.890;4.722;2024-01-11T06:53:17;35.6;;;12.7;;
6561;SDS011;3314;50.890;4.722;2024-01-11T06:55:09;37.3;;;12.3;;
6561;SDS011;3314;50.890;4.722;2024-01-11T06:57:10;31.7;;;12.6;;
6561;SDS011;3314;50.890;4.722;2024-01-11T06:59:10;38.2;;;13.3;;
6561;SDS011;3314;50.890;4.722;2024-01-11T07:01:12;34.2;;;12.1;;
6561;SDS011;3314;50.890;4.722;2024-01-11T07:03:15;36.6;;;12.7;;
6561;SDS011;3314;50.890;4.722;2024-01-11T07:05:03;32.6;;;13.1;;
6561;SDS011;3314;50.890;4.722;2024-01-11T07:07:06;38.9;;;14.3;;
6561;SDS011;3314;50.890;4.722;2024-01-11T07:09:06;39.5;;;13.4;;
6561;SDS011;3314;50.890;4.722;2024-01-11T07:11:06;36.6;;;13.6;;
6561;SDS011;3314;50.890;4.722;2024-01-11T07:13:07;40.1;;;13.2;;
6561;SDS011;3314;50.890;4.722;2024-01-11T07:15:08;28.5;;;11.8;;
6561;SDS011;3314;50.890;4.722;2024-01-11T07:17:08;34.5;;;13.7;;
6561;SDS011;3314;50.890;4.722;2024-01-11T07:19:08;35.5;;;12.2;;
6561;SDS011;3314;50.890;4.722;2024-01-11T07:21:08;34.5;;;13.6;;
6561;SDS011;3314;50.890;4.722;2024-01-11T07:22:57;32.7;;;12.8;;
6561;SDS011;3314;50.890;4.722;2024-01-11T07:24:57;40.3;;;13.3;;
6561;SDS011;3314;50.890;4.722;2024-01-11T07:26:56;37.8;;;14.3;;
6561;SDS011;3314;50.890;4.722;2024-01-11T07:28:56;37.6;;;12.9;;
6561;SDS011;3314;50.890;4.722;2024-01-11T07:30:57;38.4;;;13.7;;
6561;SDS011;3314;50.890;4.722;2024-01-11T07:32:56;33.6;;;13.0;;
6561;SDS011;3314;50.890;4.722;2024-01-11T07:34:56;31.0;;;13.1;;
6561;SDS011;3314;50.890;4.722;2024-01-11T07:36:57;33.7;;;13.3;;
6561;SDS011;3314;50.890;4.722;2024-01-11T07:38:56;33.4;;;13.7;;
6561;SDS011;3314;50.890;4.722;2024-01-11T07:40:56;36.1;;;13.5;;
6561;SDS011;3314;50.890;4.722;2024-01-11T07:42:56;32.5;;;12.7;;
6561;SDS011;3314;50.890;4.722;2024-01-11T07:45:00;33.9;;;12.7;;
6561;SDS011;3314;50.890;4.722;2024-01-11T07:47:02;32.6;;;12.7;;
6561;SDS011;3314;50.890;4.722;2024-01-11T07:48:55;34.0;;;11.4;;
6561;SDS011;3314;50.890;4.722;2024-01-11T07:50:57;33.4;;;12.7;;
6561;SDS011;3314;50.890;4.722;2024-01-11T07:52:58;31.2;;;13.5;;
6561;SDS011;3314;50.890;4.722;2024-01-11T07:55:00;36.5;;;14.0;;
6561;SDS011;3314;50.890;4.722;2024-01-11T07:56:48;38.4;;;14.2;;
6561;SDS011;3314;50.890;4.722;2024-01-11T07:58:48;30.3;;;13.2;;
6561;SDS011;3314;50.890;4.722;2024-01-11T08:00:47;39.1;;;13.4;;
6561;SDS011;3314;50.890;4.722;2024-01-11T08:02:47;37.9;;;14.4;;
6561;SDS011;3314;50.890;4.722;2024-01-11T08:04:47;32.1;;;13.8;;
6561;SDS011;3314;50.890;4.722;2024-01-11T08:06:46;39.1;;;14.0;;
6561;SDS011;3314;50.890;4.722;2024-01-11T08:08:51;34.5;;;13.7;;
6561;SDS011;3314;50.890;4.722;2024-01-11T08:10:51;39.5;;;13.5;;
6561;SDS011;3314;50.890;4.722;2024-01-11T08:12:51;34.9;;;12.8;;
6561;SDS011;3314;50.890;4.722;2024-01-11T08:14:50;36.7;;;14.3;;
6561;SDS011;3314;50.890;4.722;2024-01-11T08:16:50;35.2;;;14.3;;
6561;SDS011;3314;50.890;4.722;2024-01-11T08:18:50;43.2;;;13.8;;
6561;SDS011;3314;50.890;4.722;2024-01-11T08:20:49;34.7;;;13.1;;
6561;SDS011;3314;50.890;4.722;2024-01-11T08:22:49;35.8;;;12.5;;
6561;SDS011;3314;50.890;4.722;2024-01-11T08:24:39;30.1;;;12.1;;
6561;SDS011;3314;50.890;4.722;2024-01-11T08:26:38;36.2;;;13.4;;
6561;SDS011;3314;50.890;4.722;2024-01-11T08:28:38;36.2;;;14.2;;
6561;SDS011;3314;50.890;4.722;2024-01-11T08:30:41;33.6;;;14.2;;
6561;SDS011;3314;50.890;4.722;2024-01-11T08:32:42;34.9;;;13.4;;
6561;SDS011;3314;50.890;4.722;2024-01-11T08:34:41;37.6;;;14.5;;
6561;SDS011;3314;50.890;4.722;2024-01-11T08:36:42;35.7;;;13.2;;
6561;SDS011;3314;50.890;4.722;2024-01-11T08:38:42;37.2;;;14.0;;
6561;SDS011;3314;50.890;4.722;2024-01-11T08:40:41;32.7;;;12.4;;
6561;SDS011;3314;50.890;4.722;2024-01-11T08:42:43;35.0;;;12.4;;
6561;SDS011;3314;50.890;4.722;2024-01-11T08:44:44;33.2;;;13.5;;
6561;SDS011;3314;50.890;4.722;2024-01-11T08:46:35;43.6;;;15.8;;
6561;SDS011;3314;50.890;4.722;2024-01-11T08:48:34;39.5;;;13.8;;
6561;SDS011;3314;50.890;4.722;2024-01-11T08:50:36;37.2;;;14.1;;
6561;SDS011;3314;50.890;4.722;2024-01-11T08:52:39;37.1;;;14.6;;
6561;SDS011;3314;50.890;4.722;2024-01-11T08:54:44;34.8;;;13.3;;
6561;SDS011;3314;50.890;4.722;2024-01-11T08:56:32;34.5;;;14.1;;
6561;SDS011;3314;50.890;4.722;2024-01-11T08:58:31;38.0;;;14.0;;
6561;SDS011;3314;50.890;4.722;2024-01-11T09:00:34;40.6;;;15.7;;
6561;SDS011;3314;50.890;4.722;2024-01-11T09:02:35;40.4;;;13.7;;
6561;SDS011;3314;50.890;4.722;2024-01-11T09:04:35;38.7;;;14.0;;
6561;SDS011;3314;50.890;4.722;2024-01-11T09:06:39;38.3;;;13.8;;
6561;SDS011;3314;50.890;4.722;2024-01-11T09:08:26;30.7;;;13.7;;
6561;SDS011;3314;50.890;4.722;2024-01-11T09:10:30;37.5;;;15.1;;
6561;SDS011;3314;50.890;4.722;2024-01-11T09:12:30;34.3;;;15.0;;
6561;SDS011;3314;50.890;4.722;2024-01-11T09:14:31;34.9;;;14.4;;
6561;SDS011;3314;50.890;4.722;2024-01-11T09:16:30;36.2;;;15.0;;
6561;SDS011;3314;50.890;4.722;2024-01-11T09:18:33;42.6;;;15.2;;
6561;SDS011;3314;50.890;4.722;2024-01-11T09:20:23;41.6;;;16.0;;
6561;SDS011;3314;50.890;4.722;2024-01-11T09:22:23;37.5;;;15.5;;
6561;SDS011;3314;50.890;4.722;2024-01-11T09:24:23;44.7;;;15.5;;
6561;SDS011;3314;50.890;4.722;2024-01-11T09:26:23;39.6;;;15.2;;
6561;SDS011;3314;50.890;4.722;2024-01-11T09:28:28;41.6;;;16.0;;
6561;SDS011;3314;50.890;4.722;2024-01-11T09:30:32;38.1;;;15.8;;
6561;SDS011;3314;50.890;4.722;2024-01-11T09:32:23;39.6;;;15.4;;
6561;SDS011;3314;50.890;4.722;2024-01-11T09:34:25;43.5;;;15.9;;
6561;SDS011;3314;50.890;4.722;2024-01-11T09:36:28;46.2;;;16.3;;
6561;SDS011;3314;50.890;4.722;2024-01-11T09:38:20;40.1;;;16.0;;
6561;SDS011;3314;50.890;4.722;2024-01-11T09:40:22;40.0;;;15.8;;
6561;SDS011;3314;50.890;4.722;2024-01-11T09:42:24;47.1;;;17.5;;
6561;SDS011;3314;50.890;4.722;2024-01-11T09:44:28;40.7;;;16.9;;
6561;SDS011;3314;50.890;4.722;2024-01-11T09:46:22;42.9;;;16.3;;
6561;SDS011;3314;50.890;4.722;2024-01-11T09:48:27;40.4;;;16.6;;
6561;SDS011;3314;50.890;4.722;2024-01-11T09:50:17;42.7;;;16.5;;
6561;SDS011;3314;50.890;4.722;2024-01-11T09:52:19;43.1;;;17.1;;
6561;SDS011;3314;50.890;4.722;2024-01-11T09:54:23;42.3;;;17.2;;
6561;SDS011;3314;50.890;4.722;2024-01-11T09:56:17;35.9;;;15.7;;
6561;SDS011;3314;50.890;4.722;2024-01-11T09:58:19;37.3;;;15.7;;
6561;SDS011;3314;50.890;4.722;2024-01-11T10:00:25;43.1;;;17.0;;
6561;SDS011;3314;50.890;4.722;2024-01-11T10:02:16;47.3;;;18.1;;
6561;SDS011;3314;50.890;4.722;2024-01-11T10:04:16;43.7;;;17.3;;
6561;SDS011;3314;50.890;4.722;2024-01-11T10:06:16;41.5;;;16.6;;
6561;SDS011;3314;50.890;4.722;2024-01-11T10:08:18;47.4;;;17.5;;
6561;SDS011;3314;50.890;4.722;2024-01-11T10:10:12;47.8;;;17.3;;
6561;SDS011;3314;50.890;4.722;2024-01-11T10:12:17;42.5;;;17.3;;
6561;SDS011;3314;50.890;4.722;2024-01-11T10:14:08;53.4;;;18.6;;
6561;SDS011;3314;50.890;4.722;2024-01-11T10:16:15;43.4;;;19.2;;
6561;SDS011;3314;50.890;4.722;2024-01-11T10:18:05;43.7;;;18.2;;
6561;SDS011;3314;50.890;4.722;2024-01-11T10:20:06;42.8;;;18.1;;
6561;SDS011;3314;50.890;4.722;2024-01-11T10:22:10;43.2;;;18.9;;
6561;SDS011;3314;50.890;4.722;2024-01-11T10:24:10;47.9;;;18.7;;
6561;SDS011;3314;50.890;4.722;2024-01-11T10:26:04;41.5;;;16.7;;
6561;SDS011;3314;50.890;4.722;2024-01-11T10:28:07;45.2;;;19.4;;
6561;SDS011;3314;50.890;4.722;2024-01-11T10:30:08;47.0;;;18.4;;
6561;SDS011;3314;50.890;4.722;2024-01-11T10:32:10;41.0;;;18.2;;
6561;SDS011;3314;50.890;4.722;2024-01-11T10:34:12;45.7;;;17.6;;
6561;SDS011;3314;50.890;4.722;2024-01-11T10:36:03;36.6;;;17.4;;
6561;SDS011;3314;50.890;4.722;2024-01-11T10:38:06;44.6;;;17.8;;
6561;SDS011;3314;50.890;4.722;2024-01-11T10:40:13;46.6;;;18.1;;
6561;SDS011;3314;50.890;4.722;2024-01-11T10:42:05;39.1;;;18.3;;
6561;SDS011;3314;50.890;4.722;2024-01-11T10:44:10;52.9;;;19.6;;
6561;SDS011;3314;50.890;4.722;2024-01-11T10:46:07;40.2;;;18.1;;
6561;SDS011;3314;50.890;4.722;2024-01-11T10:48:00;45.0;;;19.0;;
6561;SDS011;3314;50.890;4.722;2024-01-11T10:50:05;47.2;;;19.3;;
6561;SDS011;3314;50.890;4.722;2024-01-11T10:51:58;48.0;;;20.4;;
6561;SDS011;3314;50.890;4.722;2024-01-11T10:54:01;45.3;;;17.4;;
6561;SDS011;3314;50.890;4.722;2024-01-11T10:56:01;46.2;;;18.7;;
6561;SDS011;3314;50.890;4.722;2024-01-11T10:58:06;47.9;;;19.3;;
6561;SDS011;3314;50.890;4.722;2024-01-11T10:59:54;44.4;;;18.2;;
6561;SDS011;3314;50.890;4.722;2024-01-11T11:01:58;50.9;;;18.6;;
6561;SDS011;3314;50.890;4.722;2024-01-11T11:04:03;44.9;;;19.8;;
6561;SDS011;3314;50.890;4.722;2024-01-11T11:05:53;48.4;;;20.4;;
6561;SDS011;3314;50.890;4.722;2024-01-11T11:07:53;42.2;;;19.6;;
6561;SDS011;3314;50.890;4.722;2024-01-11T11:09:58;50.2;;;19.5;;
6561;SDS011;3314;50.890;4.722;2024-01-11T11:11:58;46.4;;;19.7;;
6561;SDS011;3314;50.890;4.722;2024-01-11T11:13:58;50.1;;;19.6;;
6561;SDS011;3314;50.890;4.722;2024-01-11T11:15:54;43.2;;;19.2;;
6561;SDS011;3314;50.890;4.722;2024-01-11T11:17:58;51.0;;;20.6;;
6561;SDS011;3314;50.890;4.722;2024-01-11T11:19:52;45.8;;;19.3;;
6561;SDS011;3314;50.890;4.722;2024-01-11T11:21:56;48.5;;;18.9;;
6561;SDS011;3314;50.890;4.722;2024-01-11T11:23:57;41.6;;;17.5;;
6561;SDS011;3314;50.890;4.722;2024-01-11T11:25:47;47.5;;;18.8;;
6561;SDS011;3314;50.890;4.722;2024-01-11T11:27:51;45.0;;;18.9;;
6561;SDS011;3314;50.890;4.722;2024-01-11T11:29:57;47.7;;;18.9;;
6561;SDS011;3314;50.890;4.722;2024-01-11T11:31:54;46.5;;;18.7;;
6561;SDS011;3314;50.890;4.722;2024-01-11T11:34:03;39.0;;;15.9;;
6561;SDS011;3314;50.890;4.722;2024-01-11T11:35:52;40.8;;;18.5;;
6561;SDS011;3314;50.890;4.722;2024-01-11T11:37:55;46.2;;;17.0;;
6561;SDS011;3314;50.890;4.722;2024-01-11T11:39:43;47.4;;;17.7;;
6561;SDS011;3314;50.890;4.722;2024-01-11T11:41:44;40.4;;;17.0;;
6561;SDS011;3314;50.890;4.722;2024-01-11T11:43:46;40.9;;;17.0;;
6561;SDS011;3314;50.890;4.722;2024-01-11T11:45:50;40.9;;;16.6;;
6561;SDS011;3314;50.890;4.722;2024-01-11T11:47:47;42.6;;;16.8;;
6561;SDS011;3314;50.890;4.722;2024-01-11T11:49:57;38.2;;;16.1;;
6561;SDS011;3314;50.890;4.722;2024-01-11T11:51:49;36.3;;;15.9;;
6561;SDS011;3314;50.890;4.722;2024-01-11T11:53:44;40.2;;;15.9;;
6561;SDS011;3314;50.890;4.722;2024-01-11T11:55:47;36.9;;;15.3;;
6561;SDS011;3314;50.890;4.722;2024-01-11T11:57:52;40.7;;;17.4;;
6561;SDS011;3314;50.890;4.722;2024-01-11T11:59:40;42.5;;;15.9;;
6561;SDS011;3314;50.890;4.722;2024-01-11T12:01:43;41.9;;;16.0;;
6561;SDS011;3314;50.890;4.722;2024-01-11T12:03:49;40.3;;;16.2;;
6561;SDS011;3314;50.890;4.722;2024-01-11T12:05:40;44.5;;;17.0;;
6561;SDS011;3314;50.890;4.722;2024-01-11T12:07:42;43.4;;;16.3;;
6561;SDS011;3314;50.890;4.722;2024-01-11T12:09:46;39.6;;;15.7;;
6561;SDS011;3314;50.890;4.722;2024-01-11T12:11:38;36.4;;;15.9;;
6561;SDS011;3314;50.890;4.722;2024-01-11T12:13:41;38.2;;;16.6;;
6561;SDS011;3314;50.890;4.722;2024-01-11T12:15:41;35.7;;;14.7;;
6561;SDS011;3314;50.890;4.722;2024-01-11T12:17:43;37.5;;;15.7;;
6561;SDS011;3314;50.890;4.722;2024-01-11T12:19:32;36.5;;;15.1;;
6561;SDS011;3314;50.890;4.722;2024-01-11T12:21:32;39.5;;;16.0;;